Time;durP1;ratioP1;P1;durP2;ratioP2;P2;SDS_P1;SDS_P2;PMS_P1;PMS_P2;Temp;Humidity;BMP_temperature;BMP_pressure;BME280_temperature;BME280_humidity;BME280_pressure;Samples;Min_cycle;Max_cycle;Signal;HPM_P1;HPM_P2
2023/09/12 04:06:00;;;;;;;0.30;0.30;;;16.90;99.90;;;;;;5431752;23;20543;-64
2023/09/12 04:08:25;;;;;;;0.77;0.77;;;16.80;99.90;;;;;;4976196;28;20428;-64
2023/09/12 04:10:51;;;;;;;0.30;0.30;;;16.80;99.90;;;;;;4976496;28;20292;-63
2023/09/12 04:13:17;;;;;;;0.30;0.30;;;16.80;99.90;;;;;;4959143;28;20199;-64
2023/09/12 04:15:42;;;;;;;0.30;0.20;;;16.80;99.90;;;;;;4976209;28;20216;-64
2023/09/12 04:18:08;;;;;;;0.40;0.40;;;16.80;99.90;;;;;;4976725;28;20527;-64
2023/09/12 04:20:33;;;;;;;0.30;0.20;;;16.80;99.90;;;;;;4976158;28;20193;-64
2023/09/12 04:23:02;;;;;;;0.30;0.30;;;16.90;99.90;;;;;;4976425;28;20185;-63
2023/09/12 04:25:29;;;;;;;0.30;0.30;;;16.90;99.90;;;;;;4975534;28;20294;-64
2023/09/12 04:27:54;;;;;;;0.30;0.30;;;16.90;99.90;;;;;;4976312;28;20423;-65
2023/09/12 04:30:20;;;;;;;0.30;0.20;;;16.70;99.90;;;;;;4975936;28;20436;-63
2023/09/12 04:32:45;;;;;;;0.30;0.30;;;16.80;99.90;;;;;;4975973;28;20172;-63
2023/09/12 04:35:11;;;;;;;0.30;0.30;;;16.70;99.90;;;;;;4974334;28;20276;-64
2023/09/12 04:37:37;;;;;;;0.30;0.20;;;16.70;99.90;;;;;;4975874;28;20180;-65
2023/09/12 04:40:05;;;;;;;0.30;0.30;;;16.70;99.90;;;;;;4975764;28;20709;-63
2023/09/12 04:42:31;;;;;;;1.37;0.50;;;16.80;99.90;;;;;;4975771;28;20184;-63
2023/09/12 04:44:56;;;;;;;0.70;0.70;;;16.90;99.90;;;;;;4975493;28;20767;-65
2023/09/12 04:47:22;;;;;;;0.30;0.30;;;16.90;99.90;;;;;;4975864;28;20202;-63
2023/09/12 04:49:47;;;;;;;0.30;0.30;;;16.90;99.90;;;;;;4976011;28;20222;-63
2023/09/12 04:52:13;;;;;;;0.30;0.20;;;16.90;99.90;;;;;;4975654;28;20246;-65
2023/09/12 04:54:39;;;;;;;0.30;0.30;;;16.90;99.90;;;;;;4975195;28;20582;-65
2023/09/12 04:57:04;;;;;;;0.30;0.30;;;17.00;99.90;;;;;;4975772;28;20185;-64
2023/09/12 04:59:30;;;;;;;0.40;0.40;;;16.90;99.90;;;;;;4975621;28;20211;-63
2023/09/12 05:01:55;;;;;;;0.80;0.60;;;17.00;99.90;;;;;;4975574;28;20179;-64
2023/09/12 05:04:21;;;;;;;0.30;0.30;;;17.00;99.90;;;;;;4974711;28;20205;-65
2023/09/12 05:06:47;;;;;;;0.30;0.30;;;17.00;99.90;;;;;;4973402;28;20226;-65
2023/09/12 05:09:13;;;;;;;0.30;0.30;;;17.00;99.90;;;;;;4955976;28;20182;-60
2023/09/12 05:11:39;;;;;;;0.30;0.30;;;17.10;99.90;;;;;;4955830;29;20485;-61
2023/09/12 05:14:04;;;;;;;0.80;0.80;;;17.10;99.90;;;;;;4955570;29;20171;-66
2023/09/12 05:16:30;;;;;;;0.30;0.20;;;17.10;99.90;;;;;;4961457;28;20200;-66
2023/09/12 05:18:56;;;;;;;0.30;0.30;;;17.10;99.90;;;;;;4956140;29;20190;-63
2023/09/12 05:21:21;;;;;;;0.50;0.40;;;17.20;99.90;;;;;;4955993;29;20213;-63
2023/09/12 05:23:47;;;;;;;0.30;0.20;;;17.30;99.90;;;;;;4955297;28;20191;-60
2023/09/12 05:26:13;;;;;;;0.30;0.30;;;17.30;99.90;;;;;;4970441;28;20260;-66
2023/09/12 05:28:39;;;;;;;0.30;0.20;;;17.40;99.90;;;;;;4957543;28;20186;-64
2023/09/12 05:31:04;;;;;;;0.30;0.30;;;17.50;99.90;;;;;;4974606;28;20253;-62
2023/09/12 05:33:30;;;;;;;0.83;0.83;;;17.60;99.90;;;;;;4974814;28;20208;-62
2023/09/12 05:35:55;;;;;;;0.30;0.20;;;17.70;99.90;;;;;;4961134;28;20661;-66
2023/09/12 05:38:21;;;;;;;0.30;0.20;;;17.70;99.90;;;;;;4955801;29;20635;-63
2023/09/12 05:40:49;;;;;;;0.30;0.30;;;17.80;99.90;;;;;;4955326;29;20696;-62
2023/09/12 05:43:15;;;;;;;0.30;0.30;;;17.90;99.90;;;;;;4956118;28;20553;-63
2023/09/12 05:45:41;;;;;;;0.30;0.30;;;18.00;99.90;;;;;;4965365;28;20482;-62
2023/09/12 05:48:07;;;;;;;0.40;0.40;;;18.00;99.90;;;;;;4971771;28;20856;-63
2023/09/12 05:50:32;;;;;;;0.53;0.53;;;18.00;99.90;;;;;;4970920;28;20232;-61
2023/09/12 05:52:58;;;;;;;2.10;1.70;;;18.00;99.90;;;;;;4964191;28;20183;-62
2023/09/12 05:55:24;;;;;;;0.30;0.30;;;18.10;99.90;;;;;;4954587;29;20733;-60
2023/09/12 05:57:53;;;;;;;0.40;0.40;;;18.10;99.90;;;;;;4955159;28;20165;-60
2023/09/12 06:00:19;;;;;;;0.30;0.30;;;18.20;99.90;;;;;;4937717;29;20426;-60
2023/09/12 06:02:45;;;;;;;0.30;0.20;;;18.40;99.90;;;;;;4948764;28;20790;-60
2023/09/12 06:05:11;;;;;;;0.30;0.30;;;18.70;99.90;;;;;;4974112;28;20250;-60
2023/09/12 06:07:38;;;;;;;0.40;0.40;;;18.90;99.90;;;;;;4956971;28;21000;-61
2023/09/12 06:10:04;;;;;;;0.40;0.40;;;19.00;99.90;;;;;;4957053;28;20176;-60
2023/09/12 06:12:32;;;;;;;0.30;0.30;;;19.10;99.90;;;;;;4956780;28;20922;-60
2023/09/12 06:14:58;;;;;;;0.30;0.30;;;19.30;99.90;;;;;;4974217;28;20920;-60
2023/09/12 06:17:24;;;;;;;0.30;0.30;;;19.40;99.90;;;;;;4974720;28;20415;-60
2023/09/12 06:19:50;;;;;;;0.40;0.40;;;19.50;99.90;;;;;;4974429;28;20419;-60
2023/09/12 06:22:17;;;;;;;0.30;0.20;;;19.50;99.90;;;;;;4974396;28;20165;-61
2023/09/12 06:24:43;;;;;;;0.30;0.30;;;19.60;99.90;;;;;;4956587;28;20526;-61
2023/09/12 06:27:10;;;;;;;0.30;0.30;;;19.80;99.90;;;;;;4974257;28;20769;-63
2023/09/12 06:29:35;;;;;;;0.50;0.40;;;20.00;99.90;;;;;;4956919;28;20502;-61
2023/09/12 06:32:02;;;;;;;0.30;0.30;;;20.20;99.90;;;;;;4974511;28;20549;-61
2023/09/12 06:34:27;;;;;;;0.30;0.20;;;20.50;99.90;;;;;;4973614;28;20165;-62
2023/09/12 06:36:53;;;;;;;0.30;0.30;;;20.70;99.90;;;;;;4974254;28;20415;-61
2023/09/12 06:39:19;;;;;;;0.30;0.20;;;20.80;99.90;;;;;;4974057;28;20183;-61
2023/09/12 06:41:45;;;;;;;0.80;0.80;;;21.00;99.90;;;;;;4974052;28;20593;-61
2023/09/12 06:44:10;;;;;;;0.30;0.20;;;21.30;99.90;;;;;;4956463;28;20555;-61
2023/09/12 06:46:37;;;;;;;0.30;0.30;;;21.40;99.90;;;;;;4974294;28;20196;-61
2023/09/12 06:49:03;;;;;;;0.30;0.30;;;21.50;99.90;;;;;;4977650;28;20168;-62
2023/09/12 06:51:29;;;;;;;0.40;0.40;;;21.70;99.90;;;;;;4977950;28;20492;-62
2023/09/12 06:53:54;;;;;;;0.47;0.40;;;21.80;99.90;;;;;;4977369;28;20932;-62
2023/09/12 06:56:21;;;;;;;0.30;0.30;;;22.00;99.90;;;;;;4977681;28;20210;-63
2023/09/12 06:58:47;;;;;;;0.90;0.57;;;22.20;99.90;;;;;;4977775;28;20164;-61
2023/09/12 07:01:13;;;;;;;0.30;0.30;;;22.30;99.90;;;;;;4977683;28;20439;-61
2023/09/12 07:03:38;;;;;;;0.30;0.30;;;22.40;99.90;;;;;;4976945;28;20435;-61
2023/09/12 07:06:05;;;;;;;0.67;0.60;;;22.50;99.90;;;;;;4976659;28;20275;-62
2023/09/12 07:08:31;;;;;;;0.30;0.30;;;22.70;99.90;;;;;;4977678;28;20187;-61
2023/09/12 07:10:57;;;;;;;0.80;0.60;;;22.90;99.90;;;;;;4977584;28;20447;-61
2023/09/12 07:13:24;;;;;;;0.50;0.40;;;23.20;99.90;;;;;;4977880;28;20414;-62
2023/09/12 07:15:52;;;;;;;0.30;0.30;;;23.30;99.90;;;;;;4977242;28;20247;-61
2023/09/12 07:18:19;;;;;;;0.30;0.20;;;23.40;99.90;;;;;;4977253;28;20411;-68
2023/09/12 07:20:45;;;;;;;0.40;0.40;;;23.60;99.90;;;;;;4977417;28;20390;-61
2023/09/12 07:23:11;;;;;;;0.40;0.40;;;23.90;99.90;;;;;;4977504;28;20419;-65
2023/09/12 07:25:40;;;;;;;0.30;0.30;;;24.20;99.90;;;;;;4976991;28;20754;-60
2023/09/12 07:28:07;;;;;;;0.40;0.40;;;24.40;99.90;;;;;;4977228;28;20177;-65
2023/09/12 07:30:33;;;;;;;0.67;0.67;;;24.60;99.90;;;;;;4959767;28;20466;-61
2023/09/12 07:32:58;;;;;;;0.30;0.30;;;24.80;99.90;;;;;;4976771;28;20916;-61
2023/09/12 07:35:24;;;;;;;0.30;0.30;;;25.00;99.90;;;;;;4976577;28;20193;-63
2023/09/12 07:37:50;;;;;;;0.50;0.50;;;25.30;99.90;;;;;;4977267;28;20224;-65
2023/09/12 07:40:16;;;;;;;0.30;0.30;;;25.60;99.90;;;;;;4977168;28;20229;-68
2023/09/12 07:42:42;;;;;;;0.30;0.30;;;25.90;99.90;;;;;;4977196;28;20841;-68
2023/09/12 07:45:08;;;;;;;0.30;0.20;;;26.10;99.90;;;;;;4976476;28;20195;-61
2023/09/12 07:47:34;;;;;;;0.30;0.30;;;26.30;99.90;;;;;;4977023;28;20206;-66
2023/09/12 07:50:00;;;;;;;0.30;0.30;;;26.40;99.90;;;;;;4976713;28;20414;-61
2023/09/12 07:52:26;;;;;;;0.30;0.20;;;26.40;99.90;;;;;;4976974;28;20210;-61
2023/09/12 07:54:57;;;;;;;0.47;0.40;;;26.40;99.90;;;;;;4976558;28;20427;-66
2023/09/12 07:57:23;;;;;;;0.63;0.63;;;26.50;99.90;;;;;;4976944;28;20428;-62
2023/09/12 07:59:49;;;;;;;0.30;0.20;;;26.90;99.90;;;;;;4958865;28;20829;-67
2023/09/12 08:02:14;;;;;;;0.30;0.30;;;27.10;99.80;;;;;;4976756;28;20386;-67
2023/09/12 08:04:40;;;;;;;0.30;0.30;;;27.10;99.20;;;;;;4976389;28;20191;-66
2023/09/12 08:07:05;;;;;;;0.30;0.30;;;27.10;99.50;;;;;;4976516;28;20267;-62
2023/09/12 08:09:50;;;;;;;0.30;0.30;;;26.80;99.40;;;;;;4976575;28;20512;-66
2023/09/12 08:12:16;;;;;;;0.30;0.20;;;26.70;99.90;;;;;;4976461;28;20204;-67
2023/09/12 08:14:42;;;;;;;0.50;0.50;;;26.70;99.90;;;;;;4976027;28;20423;-67
2023/09/12 08:17:07;;;;;;;0.30;0.20;;;27.00;99.90;;;;;;4976418;28;20935;-61
2023/09/12 08:19:33;;;;;;;0.40;0.40;;;27.60;99.90;;;;;;4976729;28;20168;-66
2023/09/12 08:21:58;;;;;;;0.30;0.30;;;28.10;98.80;;;;;;4976346;28;20180;-66
2023/09/12 08:24:24;;;;;;;0.33;0.33;;;28.40;98.20;;;;;;4975972;28;20172;-60
2023/09/12 08:26:49;;;;;;;0.63;0.60;;;28.60;97.60;;;;;;4976353;28;20626;-67
2023/09/12 08:29:15;;;;;;;0.30;0.30;;;28.60;97.80;;;;;;4976056;28;20175;-62
2023/09/12 08:31:40;;;;;;;0.47;0.47;;;28.50;97.30;;;;;;4976042;28;20219;-67
2023/09/12 08:34:06;;;;;;;1.17;0.93;;;28.40;97.00;;;;;;4976202;28;20262;-61
2023/09/12 08:36:32;;;;;;;0.30;0.20;;;28.10;97.60;;;;;;4975809;28;20312;-66
2023/09/12 08:38:57;;;;;;;0.80;0.80;;;28.50;97.70;;;;;;4967272;28;20169;-62
2023/09/12 08:41:23;;;;;;;0.30;0.30;;;29.30;97.10;;;;;;4956767;29;20181;-65
2023/09/12 08:43:48;;;;;;;0.40;0.40;;;30.10;96.00;;;;;;4956490;28;20177;-62
2023/09/12 08:46:16;;;;;;;0.50;0.40;;;30.90;94.20;;;;;;4956570;29;20201;-62
2023/09/12 08:48:43;;;;;;;0.53;0.53;;;31.40;93.50;;;;;;4956460;29;20185;-61
2023/09/12 08:51:09;;;;;;;0.30;0.30;;;31.70;92.80;;;;;;4939108;29;20435;-67
2023/09/12 08:53:35;;;;;;;0.30;0.30;;;31.80;92.30;;;;;;4955999;29;20483;-65
2023/09/12 08:56:03;;;;;;;0.93;0.93;;;31.40;91.70;;;;;;4956424;29;20459;-63
2023/09/12 08:58:31;;;;;;;0.67;0.67;;;31.00;92.40;;;;;;4956435;28;20434;-63
2023/09/12 09:00:57;;;;;;;1.23;1.23;;;30.70;93.10;;;;;;4956266;29;20394;-67
2023/09/12 09:03:24;;;;;;;0.30;0.30;;;30.60;93.90;;;;;;4956276;29;20396;-62
2023/09/12 09:05:51;;;;;;;0.40;0.40;;;31.20;93.60;;;;;;4955758;29;20220;-61
2023/09/12 09:08:18;;;;;;;1.00;1.00;;;31.90;92.70;;;;;;4956210;28;20782;-62
2023/09/12 09:11:03;;;;;;;0.40;0.40;;;32.80;91.50;;;;;;4955418;28;20472;-68
2023/09/12 09:13:29;;;;;;;0.57;0.57;;;33.70;90.50;;;;;;4956327;29;20827;-66
2023/09/12 09:16:24;;;;;;;1.27;1.23;;;34.80;88.70;;;;;;4955807;29;20436;-64
2023/09/12 09:19:10;;;;;;;0.73;0.70;;;36.20;81.70;;;;;;4947466;29;20450;-66
2023/09/12 09:21:39;;;;;;;1.20;1.10;;;36.80;79.50;;;;;;4955759;29;20421;-66
2023/09/12 09:24:08;;;;;;;0.50;0.50;;;36.90;79.10;;;;;;4955583;29;20444;-62
2023/09/12 09:26:50;;;;;;;0.70;0.70;;;37.40;77.40;;;;;;4955827;28;20432;-66
2023/09/12 09:29:20;;;;;;;0.70;0.70;;;37.90;76.20;;;;;;4956028;29;20841;-61
2023/09/12 09:31:51;;;;;;;1.40;1.30;;;38.60;74.20;;;;;;4955454;28;20792;-60
2023/09/12 09:34:21;;;;;;;0.80;0.80;;;39.00;72.10;;;;;;4961047;28;20902;-60
2023/09/12 09:36:56;;;;;;;1.23;1.10;;;39.30;70.40;;;;;;4974236;28;20470;-61
2023/09/12 09:39:28;;;;;;;0.87;0.87;;;39.50;70.50;;;;;;4974237;28;20434;-61
2023/09/12 09:41:55;;;;;;;1.23;1.23;;;39.90;69.40;;;;;;4974160;28;20415;-60
2023/09/12 09:44:26;;;;;;;1.10;1.10;;;40.20;67.00;;;;;;4974002;28;20422;-61
2023/09/12 09:47:02;;;;;;;1.00;1.00;;;40.20;68.10;;;;;;4975059;28;20416;-61
2023/09/12 09:49:30;;;;;;;0.90;0.90;;;40.10;67.80;;;;;;4974896;28;20415;-61
2023/09/12 09:51:58;;;;;;;1.00;1.00;;;40.20;65.70;;;;;;4974460;28;20459;-61
2023/09/12 09:54:25;;;;;;;0.90;0.90;;;40.30;65.40;;;;;;4974019;28;20773;-61
2023/09/12 09:56:55;;;;;;;1.03;1.03;;;40.40;62.50;;;;;;4974479;28;20411;-60
2023/09/12 09:59:24;;;;;;;0.93;0.93;;;40.30;62.60;;;;;;4974784;28;20419;-61
2023/09/12 10:01:51;;;;;;;1.30;1.20;;;40.00;62.20;;;;;;4974762;28;20829;-61
2023/09/12 10:04:18;;;;;;;1.00;0.90;;;39.90;63.00;;;;;;4974350;28;20554;-61
2023/09/12 10:06:45;;;;;;;0.90;0.90;;;40.10;62.20;;;;;;4974265;28;20456;-61
2023/09/12 10:09:13;;;;;;;0.60;0.60;;;40.30;60.90;;;;;;4974685;28;20463;-61
2023/09/12 10:11:46;;;;;;;0.60;0.60;;;39.40;62.30;;;;;;4974683;28;20538;-60
2023/09/12 10:14:17;;;;;;;0.90;0.90;;;38.90;64.40;;;;;;4974401;28;20822;-61
2023/09/12 10:16:48;;;;;;;0.80;0.80;;;38.70;64.40;;;;;;4974645;28;20489;-60
2023/09/12 10:19:23;;;;;;;1.10;1.10;;;38.70;65.50;;;;;;4974570;28;20451;-61
2023/09/12 10:22:02;;;;;;;0.80;0.80;;;38.80;63.80;;;;;;4974533;28;20462;-60
2023/09/12 10:24:28;;;;;;;1.87;1.43;;;38.60;64.90;;;;;;4978206;28;20822;-61
2023/09/12 10:26:54;;;;;;;0.83;0.83;;;38.50;65.10;;;;;;4978313;28;20415;-61
2023/09/12 10:29:22;;;;;;;0.77;0.77;;;38.30;65.40;;;;;;4978534;28;20416;-60
2023/09/12 10:31:48;;;;;;;0.73;0.73;;;38.20;66.60;;;;;;4978377;28;20902;-60
2023/09/12 10:34:15;;;;;;;0.60;0.60;;;38.20;65.20;;;;;;4978002;28;20437;-60
2023/09/12 10:36:42;;;;;;;0.87;0.87;;;38.10;64.10;;;;;;4978125;28;20439;-59
2023/09/12 10:39:09;;;;;;;1.07;0.97;;;37.90;64.40;;;;;;4968186;28;20421;-60
2023/09/12 10:41:37;;;;;;;0.70;0.70;;;37.80;63.70;;;;;;4941615;29;20486;-59
2023/09/12 10:44:09;;;;;;;0.50;0.50;;;37.70;63.80;;;;;;4958609;29;20491;-60
2023/09/12 10:46:37;;;;;;;1.13;1.03;;;37.60;63.90;;;;;;4958654;29;20455;-60
2023/09/12 10:49:06;;;;;;;0.60;0.60;;;37.50;63.30;;;;;;4958844;29;20464;-60
2023/09/12 10:51:32;;;;;;;0.40;0.40;;;37.50;62.00;;;;;;4958776;29;20474;-61
2023/09/12 10:53:58;;;;;;;0.60;0.60;;;37.40;62.20;;;;;;4958337;29;20395;-60
2023/09/12 10:56:29;;;;;;;0.53;0.53;;;37.30;62.90;;;;;;4958509;29;20276;-60
2023/09/12 10:59:04;;;;;;;0.50;0.50;;;37.20;63.30;;;;;;4957979;29;20535;-61
2023/09/12 11:01:30;;;;;;;0.30;0.30;;;37.00;65.30;;;;;;4958361;29;20448;-61
2023/09/12 11:03:56;;;;;;;0.60;0.60;;;36.90;66.10;;;;;;4957919;29;20420;-61
2023/09/12 11:06:30;;;;;;;0.40;0.40;;;36.60;65.20;;;;;;4958291;28;20568;-60
2023/09/12 11:09:14;;;;;;;0.50;0.50;;;36.40;66.80;;;;;;4958274;29;20420;-60
2023/09/12 11:11:44;;;;;;;0.30;0.30;;;35.90;67.60;;;;;;4958126;29;20383;-60
2023/09/12 11:14:09;;;;;;;0.30;0.30;;;35.10;69.70;;;;;;4957969;29;20402;-63
2023/09/12 11:16:36;;;;;;;0.60;0.40;;;34.40;70.50;;;;;;4940899;29;20739;-59
2023/09/12 11:19:15;;;;;;;0.40;0.40;;;33.90;72.70;;;;;;4958292;28;20203;-60
2023/09/12 11:21:49;;;;;;;0.73;0.73;;;33.50;75.00;;;;;;4958241;29;20494;-59
2023/09/12 11:24:15;;;;;;;0.50;0.40;;;33.10;73.30;;;;;;4957783;29;20404;-60
2023/09/12 11:26:58;;;;;;;0.50;0.50;;;32.80;71.30;;;;;;4957932;29;20402;-59
2023/09/12 11:29:30;;;;;;;1.23;0.73;;;32.50;72.50;;;;;;4958014;28;20415;-59
2023/09/12 11:31:59;;;;;;;0.30;0.30;;;32.20;73.40;;;;;;4957778;29;20406;-59
2023/09/12 11:34:29;;;;;;;0.40;0.40;;;32.10;76.20;;;;;;4939197;29;20395;-59
2023/09/12 11:36:56;;;;;;;0.30;0.30;;;32.00;76.70;;;;;;4957712;29;20475;-59
2023/09/12 11:39:27;;;;;;;0.67;0.67;;;32.00;76.70;;;;;;4957788;29;20417;-60
2023/09/12 11:41:55;;;;;;;0.40;0.40;;;32.00;77.00;;;;;;4957700;29;20524;-60
2023/09/12 11:44:21;;;;;;;0.80;0.77;;;32.00;73.60;;;;;;4940007;29;20467;-60
2023/09/12 11:46:49;;;;;;;0.30;0.30;;;32.00;72.30;;;;;;4957720;29;20905;-61
2023/09/12 11:49:16;;;;;;;0.30;0.30;;;31.80;72.60;;;;;;4957545;29;20416;-61
2023/09/12 11:51:48;;;;;;;0.80;0.80;;;31.80;72.00;;;;;;4957465;29;20391;-58
2023/09/12 11:54:15;;;;;;;0.30;0.30;;;31.80;73.70;;;;;;4956839;29;20899;-59
2023/09/12 11:56:41;;;;;;;0.40;0.40;;;31.70;76.30;;;;;;4974491;28;20446;-60
2023/09/12 11:59:07;;;;;;;0.40;0.40;;;31.70;74.10;;;;;;4975973;28;20884;-60
2023/09/12 12:01:33;;;;;;;0.30;0.30;;;31.60;73.90;;;;;;4975928;28;20305;-60
2023/09/12 12:03:59;;;;;;;0.40;0.37;;;31.60;73.20;;;;;;4975628;28;20436;-59
2023/09/12 12:06:25;;;;;;;0.30;0.30;;;31.50;72.20;;;;;;4975794;28;20439;-59
2023/09/12 12:08:54;;;;;;;0.30;0.20;;;31.50;73.00;;;;;;4976108;28;20642;-61
2023/09/12 12:11:20;;;;;;;0.53;0.53;;;31.40;72.30;;;;;;4976354;28;20180;-59
2023/09/12 12:13:45;;;;;;;0.30;0.30;;;31.40;71.00;;;;;;4974801;28;20442;-59
2023/09/12 12:16:17;;;;;;;0.63;0.63;;;31.40;71.00;;;;;;4958372;28;20204;-58
2023/09/12 12:18:43;;;;;;;0.30;0.30;;;31.40;71.40;;;;;;4972918;28;20189;-59
2023/09/12 12:21:09;;;;;;;0.30;0.30;;;31.30;72.90;;;;;;4976406;28;20442;-60
2023/09/12 12:23:34;;;;;;;0.63;0.63;;;31.30;72.80;;;;;;4958720;28;20547;-59
2023/09/12 12:26:08;;;;;;;0.30;0.30;;;31.30;71.70;;;;;;4956971;29;20212;-68
2023/09/12 12:28:35;;;;;;;0.30;0.20;;;31.30;71.90;;;;;;4956724;28;20587;-61
2023/09/12 12:31:01;;;;;;;0.33;0.33;;;31.20;72.20;;;;;;4961592;28;20430;-64
2023/09/12 12:33:27;;;;;;;0.83;0.83;;;31.10;72.70;;;;;;4975986;28;20412;-61
2023/09/12 12:36:19;;;;;;;1.10;0.47;;;31.20;73.70;;;;;;4958278;28;20410;-62
2023/09/12 12:38:47;;;;;;;0.30;0.20;;;31.10;71.40;;;;;;4958703;28;20212;-65
2023/09/12 12:41:22;;;;;;;0.30;0.30;;;31.10;72.70;;;;;;4955962;28;20965;-63
2023/09/12 12:43:51;;;;;;;0.43;0.43;;;31.10;71.70;;;;;;4956357;29;20464;-62
2023/09/12 12:46:19;;;;;;;1.07;0.70;;;31.00;71.20;;;;;;4956298;28;20448;-65
2023/09/12 12:48:45;;;;;;;0.40;0.37;;;31.10;70.40;;;;;;4955986;29;20412;-63
2023/09/12 12:51:16;;;;;;;0.30;0.20;;;31.10;70.50;;;;;;4955803;29;20422;-66
2023/09/12 12:53:53;;;;;;;0.30;0.30;;;31.20;71.10;;;;;;4972918;28;20431;-66
2023/09/12 12:56:26;;;;;;;0.40;0.40;;;31.10;70.90;;;;;;4975768;28;20438;-62
2023/09/12 12:58:55;;;;;;;0.30;0.30;;;31.00;70.60;;;;;;4975709;28;20563;-65
2023/09/12 13:01:21;;;;;;;0.40;0.40;;;30.90;70.50;;;;;;4975603;28;20430;-63
2023/09/12 13:03:49;;;;;;;0.30;0.30;;;30.80;70.30;;;;;;4975201;28;20953;-66
2023/09/12 13:06:15;;;;;;;0.77;0.77;;;30.80;69.50;;;;;;4975247;28;20959;-66
2023/09/12 13:08:42;;;;;;;0.40;0.40;;;30.60;70.40;;;;;;4956440;28;20432;-67
2023/09/12 13:11:09;;;;;;;0.40;0.40;;;30.50;71.10;;;;;;4956286;29;20181;-67
2023/09/12 13:13:36;;;;;;;0.37;0.37;;;30.50;71.80;;;;;;4951960;28;20460;-63
2023/09/12 13:16:04;;;;;;;0.30;0.23;;;30.40;72.00;;;;;;4975295;28;20435;-65
2023/09/12 13:18:31;;;;;;;0.53;0.53;;;30.40;72.00;;;;;;4975261;28;20455;-64
2023/09/12 13:20:56;;;;;;;0.30;0.20;;;30.30;73.20;;;;;;4975129;28;20547;-61
2023/09/12 13:23:24;;;;;;;0.30;0.30;;;30.20;72.90;;;;;;4975174;28;20506;-66
2023/09/12 13:25:50;;;;;;;0.30;0.30;;;30.20;73.40;;;;;;4957167;28;20251;-66
2023/09/12 13:28:15;;;;;;;0.30;0.30;;;30.10;74.10;;;;;;4961258;28;20399;-63
2023/09/12 13:30:41;;;;;;;0.30;0.30;;;30.00;74.50;;;;;;4955694;28;20415;-66
2023/09/12 13:33:06;;;;;;;0.30;0.30;;;30.00;75.80;;;;;;4955744;28;20177;-64
2023/09/12 13:35:32;;;;;;;0.37;0.30;;;30.10;76.10;;;;;;4955079;28;20539;-63
2023/09/12 13:37:58;;;;;;;0.30;0.20;;;30.10;76.50;;;;;;4955829;29;20256;-62
2023/09/12 13:40:23;;;;;;;0.30;0.20;;;30.00;77.50;;;;;;4955727;28;20184;-62
2023/09/12 13:42:49;;;;;;;0.50;0.50;;;30.10;77.90;;;;;;4961995;28;20544;-63
2023/09/12 13:45:14;;;;;;;0.30;0.20;;;30.10;78.30;;;;;;4974423;28;20203;-66
2023/09/12 13:47:42;;;;;;;0.40;0.40;;;30.20;77.80;;;;;;4957536;28;20183;-66
2023/09/12 13:50:08;;;;;;;0.30;0.20;;;30.10;76.90;;;;;;4974607;28;20207;-63
2023/09/12 13:52:34;;;;;;;0.30;0.27;;;30.20;76.80;;;;;;4965220;28;20467;-62
2023/09/12 13:55:03;;;;;;;0.40;0.40;;;30.20;77.40;;;;;;4954888;29;20435;-61
2023/09/12 13:57:29;;;;;;;0.30;0.20;;;30.10;77.30;;;;;;4954979;28;20169;-63
2023/09/12 13:59:54;;;;;;;0.50;0.50;;;30.10;77.30;;;;;;4955720;29;20420;-66
2023/09/12 14:02:20;;;;;;;0.60;0.60;;;30.10;77.10;;;;;;4955410;29;20437;-66
2023/09/12 14:04:45;;;;;;;1.27;0.70;;;30.20;77.00;;;;;;4954887;29;20287;-66
2023/09/12 14:07:11;;;;;;;0.60;0.60;;;30.20;75.80;;;;;;4963295;28;20196;-65
2023/09/12 14:09:37;;;;;;;0.30;0.30;;;30.30;76.10;;;;;;4957302;28;20176;-63
2023/09/12 14:12:02;;;;;;;0.30;0.30;;;30.40;76.50;;;;;;4974593;28;20212;-67
2023/09/12 14:14:28;;;;;;;2.43;0.63;;;30.40;77.00;;;;;;4974008;28;20717;-62
2023/09/12 14:16:54;;;;;;;0.50;0.50;;;30.50;77.00;;;;;;4974459;28;20451;-66
2023/09/12 14:19:19;;;;;;;0.60;0.60;;;30.60;76.30;;;;;;4974304;28;20172;-64
2023/09/12 14:21:45;;;;;;;0.50;0.30;;;30.60;76.20;;;;;;4967401;28;20551;-66
2023/09/12 14:24:11;;;;;;;0.50;0.37;;;30.70;77.00;;;;;;4954817;28;20173;-61
2023/09/12 14:26:36;;;;;;;0.40;0.40;;;30.80;77.20;;;;;;4955074;29;20284;-66
2023/09/12 14:29:02;;;;;;;0.40;0.40;;;30.70;76.20;;;;;;4955316;29;20173;-61
2023/09/12 14:31:27;;;;;;;0.30;0.30;;;30.70;78.60;;;;;;4955184;29;20184;-66
2023/09/12 14:33:53;;;;;;;0.30;0.20;;;30.60;78.70;;;;;;4954683;29;20208;-62
2023/09/12 14:36:19;;;;;;;0.73;0.57;;;30.60;79.30;;;;;;4964700;28;20278;-65
2023/09/12 14:38:45;;;;;;;0.30;0.30;;;30.50;79.80;;;;;;4956897;28;20670;-62
2023/09/12 14:41:12;;;;;;;0.40;0.40;;;30.30;81.00;;;;;;4974312;28;20826;-65
2023/09/12 14:43:38;;;;;;;0.30;0.30;;;30.10;82.00;;;;;;4973919;28;20826;-62
2023/09/12 14:46:05;;;;;;;0.40;0.30;;;30.10;81.90;;;;;;4974358;28;20431;-62
2023/09/12 14:48:33;;;;;;;0.50;0.40;;;29.90;82.00;;;;;;4974322;28;20538;-65
2023/09/12 14:51:00;;;;;;;0.53;0.40;;;29.80;82.40;;;;;;4964335;28;20411;-62
2023/09/12 14:53:27;;;;;;;0.30;0.30;;;29.80;83.30;;;;;;4955094;29;20409;-60
2023/09/12 14:55:53;;;;;;;0.30;0.20;;;29.70;83.30;;;;;;4954608;29;20437;-63
2023/09/12 14:58:19;;;;;;;0.50;0.50;;;29.70;83.90;;;;;;4954916;29;20483;-66
2023/09/12 15:00:44;;;;;;;0.67;0.53;;;29.70;83.90;;;;;;4955022;29;20788;-62
2023/09/12 15:03:10;;;;;;;0.30;0.30;;;29.60;84.00;;;;;;4954940;29;20183;-65
2023/09/12 15:05:35;;;;;;;0.30;0.20;;;29.50;84.30;;;;;;4962623;28;20192;-63
2023/09/12 15:08:01;;;;;;;0.30;0.30;;;29.50;85.10;;;;;;4973961;28;20192;-67
2023/09/12 15:10:27;;;;;;;0.63;0.63;;;29.50;85.20;;;;;;4976484;28;20169;-65
2023/09/12 15:12:53;;;;;;;0.30;0.30;;;29.50;85.30;;;;;;4977828;28;20550;-65
2023/09/12 15:15:19;;;;;;;0.70;0.50;;;29.60;84.60;;;;;;4977214;28;20211;-63
2023/09/12 15:17:44;;;;;;;1.17;0.77;;;29.60;84.90;;;;;;4977674;28;20736;-66
2023/09/12 15:20:11;;;;;;;0.40;0.40;;;29.60;85.00;;;;;;4969897;28;20239;-62
2023/09/12 15:22:36;;;;;;;0.30;0.30;;;29.60;84.90;;;;;;4958159;29;20638;-63
2023/09/12 15:25:02;;;;;;;0.30;0.30;;;29.70;85.60;;;;;;4957532;29;20498;-67
2023/09/12 15:27:29;;;;;;;0.33;0.33;;;29.70;85.60;;;;;;4958117;29;20227;-65
2023/09/12 15:29:55;;;;;;;0.30;0.20;;;29.60;85.00;;;;;;4957969;29;20388;-62
2023/09/12 15:32:20;;;;;;;0.30;0.30;;;29.70;84.90;;;;;;4958043;29;20942;-62
2023/09/12 15:34:46;;;;;;;0.40;0.40;;;29.70;85.10;;;;;;4963240;28;20451;-65
2023/09/12 15:37:13;;;;;;;0.50;0.50;;;29.70;85.50;;;;;;4977798;28;20595;-65
2023/09/12 15:39:39;;;;;;;0.30;0.30;;;29.80;85.50;;;;;;4977378;28;20443;-63
2023/09/12 15:42:06;;;;;;;0.50;0.40;;;29.80;84.60;;;;;;4977289;28;20545;-61
2023/09/12 15:44:32;;;;;;;0.30;0.30;;;29.70;84.10;;;;;;4976712;28;20416;-62
2023/09/12 15:46:57;;;;;;;1.50;0.50;;;29.70;83.90;;;;;;4977130;28;20491;-61
2023/09/12 15:49:26;;;;;;;0.70;0.70;;;29.60;84.10;;;;;;4958237;28;20184;-61
2023/09/12 15:51:52;;;;;;;0.50;0.50;;;29.60;84.70;;;;;;4957647;29;20240;-62
2023/09/12 15:54:18;;;;;;;0.40;0.40;;;29.50;85.30;;;;;;4957205;28;20421;-64
2023/09/12 15:56:43;;;;;;;0.30;0.20;;;29.50;85.30;;;;;;4957713;29;20280;-62
2023/09/12 15:59:09;;;;;;;0.57;0.57;;;29.40;85.40;;;;;;4940502;29;20271;-64
2023/09/12 16:01:35;;;;;;;0.30;0.30;;;29.40;85.40;;;;;;4957555;29;20193;-61
2023/09/12 16:04:01;;;;;;;1.00;1.00;;;29.30;86.20;;;;;;4974239;28;20180;-62
2023/09/12 16:06:27;;;;;;;0.50;0.50;;;29.20;86.10;;;;;;4976375;28;20772;-64
2023/09/12 16:08:53;;;;;;;0.40;0.40;;;29.10;85.80;;;;;;4976648;28;20172;-61
2023/09/12 16:11:19;;;;;;;0.30;0.20;;;29.00;85.90;;;;;;4976735;28;20418;-64
2023/09/12 16:13:45;;;;;;;0.70;0.40;;;28.90;86.40;;;;;;4973859;28;20238;-63
2023/09/12 16:16:10;;;;;;;0.77;0.77;;;28.90;86.50;;;;;;4956818;28;20897;-61
2023/09/12 16:18:37;;;;;;;0.57;0.57;;;28.80;86.90;;;;;;4957060;29;20529;-64
2023/09/12 16:21:04;;;;;;;0.77;0.77;;;28.70;87.10;;;;;;4956593;28;20254;-63
2023/09/12 16:23:31;;;;;;;0.83;0.83;;;28.70;88.30;;;;;;4975683;28;20426;-64
2023/09/12 16:26:00;;;;;;;0.30;0.30;;;28.60;87.40;;;;;;4975996;28;20437;-65
2023/09/12 16:28:26;;;;;;;0.30;0.30;;;28.60;87.30;;;;;;4975246;28;20426;-68
2023/09/12 16:30:52;;;;;;;0.30;0.30;;;28.60;87.10;;;;;;4975864;28;20389;-63
2023/09/12 16:33:18;;;;;;;0.40;0.20;;;28.60;87.00;;;;;;4958055;28;21024;-63
2023/09/12 16:35:44;;;;;;;0.33;0.33;;;28.60;87.00;;;;;;4975751;28;20450;-65
2023/09/12 16:38:10;;;;;;;0.50;0.40;;;28.60;86.90;;;;;;4976217;28;20684;-63
2023/09/12 16:40:39;;;;;;;0.50;0.50;;;28.60;87.20;;;;;;4971861;28;20436;-63
2023/09/12 16:43:05;;;;;;;0.30;0.30;;;28.60;86.90;;;;;;4956353;28;20553;-63
2023/09/12 16:45:31;;;;;;;0.57;0.57;;;28.70;87.20;;;;;;4956225;29;20482;-66
2023/09/12 16:47:57;;;;;;;0.40;0.40;;;28.70;88.00;;;;;;4956697;29;20424;-65
2023/09/12 16:50:24;;;;;;;0.30;0.30;;;28.70;88.40;;;;;;4956559;29;20423;-67
2023/09/12 16:52:50;;;;;;;0.87;0.87;;;28.70;88.40;;;;;;4956503;28;20188;-62